| time (UTC) | temp F | wind direction | speed knots | gust knots | rain 1hr in | rain 24hr in | rain mn in | humidity % | barometer mb |
| 20260507191509 | 53 | 355 | 7.8 | 17.4 | 0.00 | 0.37 | 0.01 | 44 | 1006.0 |
| 20260507190022 | 52 | 32 | 9.6 | 18.2 | 0.00 | 0.37 | 0.01 | 45 | 1005.8 |
| 20260507184507 | 52 | 281 | 8.7 | 17.4 | 0.00 | 0.63 | 0.01 | 45 | 1005.8 |
| 20260507183015 | 53 | 259 | 12.2 | 21.7 | 0.00 | 0.63 | 0.01 | 44 | 1005.9 |
| 20260507181505 | 52 | 234 | 6.1 | 16.5 | 0.00 | 0.63 | 0.01 | 51 | 1005.7 |
| 20260507180001 | 50 | 277 | 8.7 | 16.5 | 0.00 | 0.73 | 0.01 | 52 | 1006.0 |
| 20260507174559 | 50 | 281 | 7.8 | 13.9 | 0.00 | 0.73 | 0.01 | 52 | 1006.1 |
| 20260507173059 | 50 | 261 | 8.7 | 15.6 | 0.00 | 0.73 | 0.01 | 52 | 1006.3 |
| 20260507171602 | 51 | 287 | 7.8 | 17.4 | 0.00 | 0.73 | 0.01 | 56 | 1006.5 |
| 20260507170056 | 52 | 250 | 10.4 | 16.5 | 0.00 | 0.73 | 0.01 | 55 | 1006.5 |
| 20260507164554 | 50 | 265 | 5.2 | 15.6 | 0.00 | 0.78 | 0.01 | 64 | 1006.8 |
| 20260507163048 | 49 | 232 | 6.1 | 17.4 | 0.00 | 0.78 | 0.01 | 72 | 1007.1 |
| 20260507161547 | 49 | 227 | 1.7 | 9.6 | 0.00 | 0.78 | 0.01 | 75 | 1007.5 |
| 20260507160051 | 48 | 310 | 7.0 | 11.3 | 0.00 | 0.78 | 0.01 | 74 | 1007.6 |
| 20260507154542 | 47 | 284 | 6.1 | 13.0 | 0.00 | 0.82 | 0.01 | 71 | 1007.7 |
| 20260507153046 | 45 | 312 | 5.2 | 11.3 | 0.00 | 0.82 | 0.01 | 78 | 1007.9 |
| 20260507151539 | 44 | 256 | 3.5 | 9.6 | 0.00 | 0.82 | 0.01 | 85 | 1008.0 |
| 20260507150037 | 44 | 254 | 5.2 | 9.6 | 0.00 | 0.82 | 0.01 | 87 | 1007.9 |
| 20260507144536 | 43 | 264 | 6.1 | 11.3 | 0.00 | 0.82 | 0.01 | 86 | 1008.1 |
| 20260507143036 | 44 | 268 | 6.1 | 9.6 | 0.00 | 0.82 | 0.01 | 82 | 1007.8 |
| 20260507141535 | 45 | 272 | 3.5 | 8.7 | 0.00 | 0.82 | 0.01 | 82 | 1007.8 |
| 20260507140043 | 45 | 275 | 2.6 | 7.0 | 0.00 | 0.82 | 0.01 | 83 | 1007.7 |
| 20260507134533 | 45 | 288 | 3.5 | 6.1 | 0.00 | 0.84 | 0.01 | 83 | 1007.7 |
| 20260507133032 | 44 | 320 | 2.6 | 5.2 | 0.00 | 0.84 | 0.01 | 85 | 1007.8 |
| 20260507131532 | 44 | 319 | 3.5 | 5.2 | 0.00 | 0.84 | 0.01 | 88 | 1008.0 |
| 20260507130030 | 44 | 336 | 1.7 | 4.3 | 0.00 | 0.84 | 0.01 | 88 | 1007.9 |
| 20260507124529 | 44 | 336 | 1.7 | 3.5 | 0.00 | 0.84 | 0.01 | 88 | 1007.9 |
| 20260507123033 | 44 | 355 | 0.9 | 4.3 | 0.00 | 0.84 | 0.01 | 88 | 1007.9 |
| 20260507121536 | 43 | 342 | 2.6 | 4.3 | 0.00 | 0.84 | 0.01 | 89 | 1008.0 |
| 20260507120022 | 42 | 140 | 0.0 | 0.0 | 0.00 | 0.84 | 0.01 | 95 | 1007.9 |
| 20260507114521 | 42 | 138 | 0.0 | 0.0 | 0.00 | 0.84 | 0.01 | 97 | 1007.9 |
| 20260507113031 | 41 | 138 | 0.0 | 0.0 | 0.00 | 0.84 | 0.01 | 98 | 1007.9 |
| 20260507111523 | 40 | 138 | 0.0 | 0.0 | 0.00 | 0.84 | 0.01 | 98 | 1008.1 |
| 20260507110023 | 40 | 138 | 0.0 | 0.0 | 0.00 | 0.84 | 0.01 | 98 | 1008.1 |
| 20260507104519 | 39 | 138 | 0.0 | 0.0 | 0.01 | 0.84 | 0.01 | 98 | 1008.2 |
| 20260507103018 | 38 | 138 | 0.0 | 2.6 | 0.01 | 0.84 | 0.01 | 98 | 1007.9 |
| 20260507101526 | 38 | 138 | 0.9 | 1.7 | 0.01 | 0.84 | 0.01 | 98 | 1008.0 |
| 20260507100021 | 37 | 138 | 0.9 | 2.6 | 0.01 | 0.84 | 0.01 | 97 | 1007.9 |
| 20260507094521 | 38 | 138 | 0.0 | 2.6 | 0.00 | 0.83 | 0.00 | 98 | 1007.6 |
| 20260507093032 | 38 | 127 | 1.7 | 2.6 | 0.00 | 0.83 | 0.00 | 98 | 1007.7 |
| 20260507091513 | 38 | 127 | 0.9 | 1.7 | 0.00 | 0.83 | 0.00 | 98 | 1007.5 |
| 20260507090016 | 38 | 127 | 0.0 | 2.6 | 0.00 | 0.83 | 0.00 | 98 | 1007.8 |
| 20260507084509 | 38 | 319 | 0.0 | 1.7 | 0.00 | 0.83 | 0.00 | 98 | 1007.8 |
| 20260507083013 | 38 | 319 | 0.0 | 0.0 | 0.00 | 0.83 | 0.00 | 97 | 1007.5 |
| 20260507081506 | 38 | 319 | 0.0 | 0.0 | 0.00 | 0.83 | 0.00 | 97 | 1007.2 |
| 20260507080006 | 39 | 319 | 0.0 | 0.0 | 0.00 | 0.83 | 0.00 | 98 | 1007.3 |
| 20260507074505 | 39 | 318 | 0.0 | 0.0 | 0.00 | 0.83 | 0.00 | 97 | 1007.2 |
| 20260507073111 | 39 | 318 | 0.0 | 0.0 | 0.00 | 0.83 | 0.00 | 98 | 1007.4 |
| 20260507071611 | 39 | 318 | 0.0 | 0.0 | 0.00 | 0.83 | 0.00 | 97 | 1007.6 |
| 20260507070057 | 40 | 318 | 0.0 | 0.0 | 0.00 | 0.83 | 0.00 | 97 | 1007.6 |
| 20260507064558 | 40 | 319 | 0.0 | 1.7 | 0.00 | 0.86 | 0.00 | 97 | 1007.5 |
| 20260507063058 | 41 | 318 | 0.0 | 2.6 | 0.00 | 0.86 | 0.00 | 97 | 1007.5 |
| 20260507061553 | 41 | 301 | 1.7 | 3.5 | 0.00 | 0.86 | 0.00 | 97 | 1007.6 |
| 20260507060051 | 41 | 344 | 0.9 | 6.1 | 0.00 | 0.86 | 0.00 | 97 | 1007.2 |
| 20260507054558 | 41 | 317 | 1.7 | 7.0 | 0.00 | 0.90 | 0.00 | 97 | 1007.5 |
| 20260507053049 | 42 | 290 | 2.6 | 6.1 | 0.00 | 0.90 | 0.00 | 98 | 1007.4 |
| 20260507051547 | 42 | 308 | 3.5 | 7.8 | 0.00 | 0.90 | 0.00 | 98 | 1007.4 |
| 20260507050044 | 42 | 300 | 3.5 | 7.8 | 0.00 | 0.90 | 0.00 | 98 | 1007.3 |
| 20260507044543 | 42 | 333 | 3.5 | 7.8 | 0.00 | 0.90 | 0.00 | 97 | 1007.3 |
| 20260507043041 | 42 | 277 | 1.7 | 3.5 | 0.00 | 0.90 | 0.00 | 98 | 1007.3 |
| 20260507041539 | 42 | 279 | 0.0 | 0.0 | 0.00 | 0.90 | 0.00 | 97 | 1007.3 |
| 20260507040040 | 42 | 279 | 0.0 | 0.0 | 0.01 | 0.90 | 0.00 | 97 | 1007.5 |
| 20260507034535 | 42 | 279 | 0.0 | 0.9 | 0.02 | 0.90 | 0.90 | 97 | 1007.5 |
| 20260507033038 | 42 | 279 | 0.0 | 3.5 | 0.04 | 0.90 | 0.90 | 97 | 1007.9 |
| 20260507031534 | 42 | 264 | 0.9 | 6.1 | 0.05 | 0.90 | 0.90 | 98 | 1008.1 |
| 20260507030034 | 42 | 273 | 1.7 | 9.6 | 0.05 | 0.89 | 0.89 | 98 | 1008.0 |
| 20260507024534 | 43 | 314 | 1.7 | 7.0 | 0.04 | 0.88 | 0.88 | 98 | 1008.1 |
| 20260507023031 | 43 | 304 | 0.9 | 3.5 | 0.03 | 0.86 | 0.86 | 98 | 1008.2 |
| 20260507021529 | 43 | 317 | 1.7 | 5.2 | 0.03 | 0.85 | 0.85 | 98 | 1008.0 |
| 20260507020030 | 43 | 311 | 2.6 | 7.0 | 0.03 | 0.84 | 0.84 | 98 | 1007.8 |
| 20260507014527 | 43 | 265 | 4.3 | 7.8 | 0.04 | 0.84 | 0.84 | 98 | 1007.7 |
| 20260507013034 | 43 | 313 | 4.3 | 7.0 | 0.04 | 0.83 | 0.83 | 97 | 1007.6 |
| 20260507011535 | 43 | 291 | 2.6 | 5.2 | 0.04 | 0.82 | 0.82 | 98 | 1007.3 |
| 20260507010025 | 43 | 279 | 2.6 | 6.1 | 0.03 | 0.81 | 0.81 | 98 | 1007.1 |
| 20260507004522 | 43 | 321 | 3.5 | 5.2 | 0.02 | 0.80 | 0.80 | 98 | 1006.7 |
| 20260507003021 | 44 | 290 | 1.7 | 3.5 | 0.02 | 0.79 | 0.79 | 98 | 1006.8 |
| 20260507001521 | 44 | 300 | 1.7 | 6.1 | 0.01 | 0.78 | 0.78 | 98 | 1006.5 |
| 20260507000020 | 44 | 298 | 2.6 | 7.0 | 0.01 | 0.78 | 0.78 | 98 | 1006.6 |
| 20260506234519 | 45 | 338 | 4.3 | 7.8 | 0.02 | 0.78 | 0.78 | 98 | 1006.3 |
| 20260506233017 | 45 | 331 | 3.5 | 5.2 | 0.01 | 0.77 | 0.77 | 98 | 1006.1 |
| 20260506231516 | 45 | 174 | 0.0 | 2.6 | 0.05 | 0.77 | 0.77 | 98 | 1006.0 |
| 20260506230016 | 45 | 174 | 0.9 | 2.6 | 0.09 | 0.76 | 0.76 | 98 | 1006.1 |
| 20260506224524 | 45 | 260 | 1.7 | 3.5 | 0.11 | 0.77 | 0.76 | 98 | 1006.1 |
| 20260506223015 | 45 | 267 | 3.5 | 10.4 | 0.12 | 0.76 | 0.75 | 97 | 1005.9 |
| 20260506221513 | 45 | 319 | 3.5 | 9.6 | 0.09 | 0.72 | 0.71 | 96 | 1006.0 |
| 20260506220010 | 46 | 315 | 5.2 | 13.0 | 0.06 | 0.68 | 0.67 | 96 | 1005.6 |
| 20260506214505 | 47 | 305 | 5.2 | 10.4 | 0.05 | 0.73 | 0.65 | 96 | 1005.1 |
| 20260506213001 | 49 | 5 | 4.3 | 8.7 | 0.04 | 0.71 | 0.63 | 96 | 1004.9 |
| 20260506211558 | 50 | 317 | 4.3 | 7.8 | 0.03 | 0.70 | 0.62 | 96 | 1004.7 |
| 20260506210119 | 51 | 317 | 2.6 | 7.0 | 0.02 | 0.69 | 0.61 | 95 | 1004.7 |
| 20260506204556 | 53 | 323 | 3.5 | 5.2 | 0.01 | 0.68 | 0.60 | 95 | 1004.6 |
| 20260506203141 | 56 | 311 | 2.6 | 4.3 | 0.00 | 0.67 | 0.59 | 94 | 1004.5 |
| 20260506201555 | 57 | 322 | 0.9 | 7.0 | 0.02 | 0.67 | 0.59 | 93 | 1004.3 |
| 20260506200055 | 58 | 293 | 2.6 | 8.7 | 0.05 | 0.67 | 0.59 | 89 | 1004.4 |
| 20260506194552 | 57 | 219 | 5.2 | 13.0 | 0.18 | 0.67 | 0.59 | 88 | 1004.7 |
| 20260506193051 | 57 | 209 | 4.3 | 11.3 | 0.26 | 0.67 | 0.59 | 90 | 1004.9 |